Latest Weather Observations for Longreach

IDQ60801

Issued at 10:32 am EST Tuesday 6 December 2016 (issued every 30 minutes, with the page automatically refreshed every 10 minutes)

About weather observations | Map of weather stations | Latest weather observations for QLD | Other Formats
Station Details ID: 036031 Name: LONGREACH AERO Lat: -23.44 Lon: 144.28 Height: 192.2 m
Data from the previous 72 hours. | See also: Recent months at Longreach
Date/Time
EST
Temp
°C
App
Temp
°C
Dew
Point
°C
Rel
Hum
%
Delta-T
°C
Wind Press
QNH
hPa
Press
MSL
hPa
Rain since
9am
mm
Dir  Spd
km/h
Gust
km/h
Spd
kts
Gust
kts
06/10:00am 37.6 33.9 8.1 16 16.9 NNW 17 26 9 14 1012.9 1011.6 0.0
06/09:30am 36.8 32.6 8.1 17 16.4 NNW 20 30 11 16 1013.0 1011.7 0.0
06/09:00am 35.3 30.6 7.6 18 15.6 NNW 22 32 12 17 1013.2 1011.9 0.0
06/08:30am 34.6 29.1 7.7 19 15.1 NW 26 32 14 17 1013.2 1011.9 0.0
06/08:00am 33.3 27.9 8.0 21 14.2 NNW 26 35 14 19 1013.0 1011.7 0.0
06/07:30am 32.1 27.8 9.5 24 12.9 NNW 22 30 12 16 1012.9 1011.6 0.0
06/07:00am 31.1 27.3 9.7 26 12.2 NNW 20 30 11 16 1012.8 1011.5 0.0
06/06:30am 27.1 26.1 12.2 39 8.7 N 9 9 5 5 1012.5 1011.1 0.0
06/06:00am 25.7 24.6 11.8 42 8.0 N 9 13 5 7 1012.0 1010.6 0.0
06/05:30am 25.9 23.5 11.4 40 8.3 NNE 15 15 8 8 1011.4 1010.0 0.0
06/05:00am 26.5 23.7 11.3 38 8.7 NNE 17 19 9 10 1011.1 1009.7 0.0
06/04:30am 25.7 24.3 12.3 43 7.8 NNE 11 13 6 7 1010.6 1009.2 0.0
06/04:00am 27.1 25.2 11.7 38 8.9 NNE 13 15 7 8 1010.0 1008.6 0.0
06/03:30am 27.0 25.4 11.4 37 9.0 NNE 11 13 6 7 1009.7 1008.3 0.0
06/03:00am 26.1 25.0 11.9 41 8.2 N 9 9 5 5 1009.3 1008.0 0.0
06/02:30am 27.2 25.0 10.9 36 9.3 NNE 13 13 7 7 1009.3 1008.0 0.0
06/02:00am 26.8 25.5 11.1 37 9.0 NNE 9 11 5 6 1009.3 1008.0 0.0
06/01:30am 28.8 26.0 9.9 30 10.7 NE 15 17 8 9 1009.5 1008.2 0.0
06/01:00am 29.0 25.8 10.0 30 10.8 NE 17 19 9 10 1009.7 1008.3 0.0
06/12:30am 29.2 26.4 10.0 30 10.9 NE 15 17 8 9 1009.8 1008.4 0.0
06/12:00am 29.4 26.1 9.6 29 11.2 NE 17 19 9 10 1010.1 1008.7 0.0
 
Date/Time
EST
Temp
°C
App
Temp
°C
Dew
Point
°C
Rel
Hum
%
Delta-T
°C
Wind Press
QNH
hPa
Press
MSL
hPa
Rain since
9am
mm
Dir  Spd
km/h
Gust
km/h
Spd
kts
Gust
kts
05/11:30pm 29.6 27.2 9.9 29 11.2 NNE 13 15 7 8 1010.3 1008.9 0.0
05/11:00pm 29.7 27.4 10.3 30 11.1 NE 13 15 7 8 1010.1 1008.7 0.0
05/10:30pm 31.9 29.7 9.5 25 12.8 NNE 11 17 6 9 1010.1 1008.7 0.0
05/10:00pm 32.1 28.9 9.8 25 12.8 ENE 17 19 9 10 1010.1 1008.7 0.0
05/09:30pm 32.7 29.4 9.5 24 13.3 NE 17 17 9 9 1009.9 1008.5 0.0
05/09:00pm 33.8 30.4 9.2 22 14.1 ENE 17 19 9 10 1009.7 1008.3 0.0
05/08:30pm 33.2 30.0 10.1 24 13.4 ENE 17 19 9 10 1009.4 1008.1 0.0
05/08:00pm 33.7 30.6 10.4 24 13.6 ENE 17 19 9 10 1009.2 1007.9 0.0
05/07:30pm 35.7 33.1 9.3 20 15.3 NE 13 13 7 7 1009.0 1007.7 0.0
05/07:00pm 37.3 35.0 10.5 20 15.9 NE 13 15 7 8 1008.8 1007.5 0.0
05/06:30pm 40.2 38.2 8.8 15 18.4 N 9 11 5 6 1008.6 1007.3 0.0
05/06:00pm 40.7 38.2 8.3 14 18.9 NNE 11 20 6 11 1008.3 1007.0 0.0
05/05:30pm 40.9 37.1 6.0 12 19.7 NNE 15 20 8 11 1008.2 1006.9 0.0
05/05:00pm 41.6 38.6 7.6 13 19.7 WSW 13 17 7 9 1008.2 1006.9 0.0
05/04:30pm 40.7 38.7 8.6 14 18.8 SW 9 13 5 7 1008.2 1006.9 0.0
05/04:00pm 41.8 38.7 7.1 12 20.0 NNE 13 22 7 12 1008.4 1007.1 0.0
05/03:30pm 41.7 37.5 5.8 11 20.3 NW 17 22 9 12 1008.7 1007.4 0.0
05/03:00pm 41.5 38.2 6.4 12 20.0 NNW 13 22 7 12 1009.0 1007.7 0.0
05/02:30pm 41.7 39.0 7.5 13 19.8 NW 11 19 6 10 1009.2 1007.9 0.0
05/02:00pm 42.1 38.1 6.7 12 20.3 NW 17 28 9 15 1009.7 1008.3 0.0
05/01:30pm 40.9 38.6 9.0 14 18.8 N 11 26 6 14 1010.1 1008.7 0.0
05/01:00pm 40.3 38.0 9.0 15 18.4 NNE 11 17 6 9 1010.7 1009.3 0.0
05/12:30pm 41.0 37.5 7.2 13 19.4 NNW 15 24 8 13 1011.0 1009.6 0.0
05/12:00pm 40.1 36.2 7.3 13 18.8 NW 17 30 9 16 1011.6 1010.2 0.0
05/11:30am 39.5 35.4 6.3 13 18.7 NNW 17 30 9 16 1012.1 1010.7 0.0
05/11:00am 39.4 35.4 6.7 13 18.5 NNW 17 28 9 15 1012.6 1011.2 0.0
05/10:30am 38.6 33.3 5.2 13 18.4 NNW 22 32 12 17 1013.0 1011.7 0.0
05/10:00am 37.8 32.5 5.2 13 17.9 NNW 22 30 12 16 1013.2 1011.9 0.0
05/09:30am 36.7 30.9 4.5 13 17.4 NNW 24 33 13 18 1013.4 1012.1 0.0
05/09:00am 36.1 30.2 6.0 15 16.6 NNW 26 33 14 18 1013.5 1012.2 0.0
05/08:30am 35.1 29.6 5.8 16 16.0 NNW 24 35 13 19 1013.6 1012.3 0.0
05/08:00am 33.9 29.5 6.7 18 15.0 NNW 19 28 10 15 1013.7 1012.4 0.0
05/07:30am 32.3 29.6 9.0 23 13.2 NW 13 17 7 9 1013.4 1012.1 0.0
05/07:00am 29.7 28.4 11.3 32 10.7 W 9 11 5 6 1013.2 1011.9 0.0
05/06:30am 27.7 26.5 11.7 37 9.3 NNE 9 11 5 6 1012.5 1011.1 0.0
05/06:00am 26.1 24.3 11.0 38 8.6 NNE 11 13 6 7 1012.0 1010.6 0.0
05/05:30am 24.8 23.2 11.5 43 7.6 NNE 11 13 6 7 1011.5 1010.1 0.0
05/05:00am 25.6 23.5 11.0 40 8.3 NNE 13 15 7 8 1011.1 1009.7 0.0
05/04:30am 25.4 23.4 11.4 41 8.0 N 13 15 7 8 1010.6 1009.2 0.0
05/04:00am 24.2 22.6 12.7 48 6.7 N 13 13 7 7 1010.3 1008.9 0.0
05/03:30am 26.1 23.6 11.0 38 8.6 NNE 15 15 8 8 1009.9 1008.5 0.0
05/03:00am 26.7 24.3 10.2 35 9.3 NNE 13 15 7 8 1009.8 1008.4 0.0
05/02:30am 27.0 24.3 10.2 35 9.5 NNE 15 17 8 9 1009.8 1008.4 0.0
05/02:00am 28.1 24.4 9.3 30 10.5 NE 19 19 10 10 1010.0 1008.6 0.0
05/01:30am 28.1 24.7 9.1 30 10.6 NNE 17 17 9 9 1010.1 1008.7 0.0
05/01:00am 26.4 23.6 10.0 35 9.2 NNE 15 17 8 9 1010.1 1008.7 0.0
05/12:30am 27.9 24.8 9.0 30 10.5 NE 15 17 8 9 1010.3 1008.9 0.0
05/12:00am 28.2 24.6 8.4 28 10.9 NE 17 17 9 9 1010.6 1009.2 0.0
 
Date/Time
EST
Temp
°C
App
Temp
°C
Dew
Point
°C
Rel
Hum
%
Delta-T
°C
Wind Press
QNH
hPa
Press
MSL
hPa
Rain since
9am
mm
Dir  Spd
km/h
Gust
km/h
Spd
kts
Gust
kts
04/11:30pm 28.5 25.2 9.7 31 10.6 NE 17 19 9 10 1010.8 1009.4 0.0
04/11:00pm 30.6 26.9 7.8 24 12.6 NE 17 19 9 10 1010.7 1009.3 0.0
04/10:30pm 31.4 28.4 7.7 23 13.1 NE 13 15 7 8 1011.0 1009.6 0.0
04/10:00pm 31.6 27.9 7.8 22 13.2 NE 17 19 9 10 1010.8 1009.4 0.0
04/09:30pm 32.4 28.5 7.2 21 13.9 NE 17 19 9 10 1010.6 1009.2 0.0
04/09:00pm 32.8 29.5 8.0 21 13.9 NE 15 15 8 8 1010.4 1009.0 0.0
04/08:30pm 33.0 29.3 8.0 21 14.0 NE 17 17 9 9 1010.1 1008.7 0.0
04/08:00pm 33.2 30.2 9.3 23 13.7 NE 15 17 8 9 1009.7 1008.3 0.0
04/07:30pm 33.9 30.5 9.1 21 14.2 NE 17 17 9 9 1009.4 1008.1 0.0
04/07:00pm 35.0 32.7 10.3 22 14.5 NE 13 15 7 8 1009.0 1007.7 0.0
04/06:30pm 38.5 35.4 7.2 15 17.8 NNE 13 17 7 9 1008.7 1007.4 0.0
04/06:00pm 40.0 36.8 5.0 12 19.4 NNE 11 15 6 8 1008.5 1007.2 0.0
04/05:30pm 40.5 37.3 5.1 11 19.7 N 11 22 6 12 1008.4 1007.1 0.0
04/05:00pm 40.9 36.9 4.9 11 20.0 NNW 15 24 8 13 1008.5 1007.2 0.0
04/04:30pm 40.7 37.6 5.6 12 19.7 ENE 11 19 6 10 1008.7 1007.4 0.0
04/04:00pm 41.0 37.5 5.5 11 19.9 NNW 13 22 7 12 1008.8 1007.5 0.0
04/03:30pm 41.2 37.4 4.1 10 20.4 NE 13 22 7 12 1009.0 1007.7 0.0
04/03:00pm 40.8 38.1 7.2 13 19.3 E 11 19 6 10 1009.5 1008.2 0.0
04/02:30pm 41.3 37.6 4.7 11 20.3 N 13 30 7 16 1010.0 1008.6 0.0
04/02:00pm 40.9 36.8 4.5 11 20.1 N 15 35 8 19 1010.4 1009.0 0.0
04/01:30pm 41.5 37.3 5.6 11 20.2 N 17 30 9 16 1010.9 1009.5 0.0
04/01:00pm 40.4 35.4 4.8 11 19.7 N 20 39 11 21 1011.5 1010.1 0.0
04/12:30pm 39.6 34.8 5.4 12 19.0 N 20 39 11 21 1012.1 1010.7 0.0
04/12:00pm 39.0 34.2 5.8 13 18.5 N 20 35 11 19 1012.7 1011.3 0.0
04/11:30am 38.1 33.6 6.2 14 17.8 NNE 19 30 10 16 1013.2 1011.9 0.0
04/11:00am 37.3 32.2 7.8 16 16.8 NE 24 35 13 19 1013.7 1012.4 0.0
04/10:30am 37.2 32.3 6.9 15 17.0 NE 22 33 12 18 1013.9 1012.6 0.0
04/10:00am 36.3 31.4 7.0 16 16.4 NE 22 33 12 18 1014.1 1012.8 0.0
04/09:30am 35.6 30.5 7.8 18 15.7 NNE 24 32 13 17 1014.1 1012.8 0.0
04/09:00am 34.5 30.6 7.2 18 15.2 NNE 17 26 9 14 1014.0 1012.7 0.0
04/08:30am 33.4 30.3 7.2 19 14.5 NNE 13 22 7 12 1013.9 1012.6 0.0
04/08:00am 33.0 28.6 7.4 20 14.2 NNE 20 28 11 15 1013.7 1012.4 0.0
04/07:30am 32.0 28.4 6.7 20 13.8 NNE 15 19 8 10 1013.6 1012.3 0.0
04/07:00am 30.8 27.2 8.4 24 12.5 NNE 17 20 9 11 1013.3 1012.0 0.0
04/06:30am 28.4 26.0 10.0 31 10.4 NNE 13 15 7 8 1013.0 1011.7 0.0
04/06:00am 27.6 24.5 8.8 30 10.4 NE 15 19 8 10 1012.5 1011.1 0.0
04/05:30am 26.0 24.5 12.0 41 8.1 ESE 11 15 6 8 1011.9 1010.5 0.0
04/05:00am 27.8 26.5 11.1 35 9.6 SE 9 11 5 6 1011.5 1010.1 0.0
04/04:30am 29.4 28.0 10.8 31 10.7 SSW 9 11 5 6 1011.2 1009.8 0.0
04/04:00am 29.5 27.0 9.7 29 11.2 SSE 13 19 7 10 1010.8 1009.4 0.0
04/03:30am 25.3 25.8 15.5 54 6.0 N 7 9 4 5 1010.1 1008.7 0.0
04/03:00am 27.6 26.1 12.0 38 9.1 NNE 11 15 6 8 1009.9 1008.5 0.0
04/02:30am 27.6 26.4 12.9 40 8.7 NE 11 13 6 7 1009.9 1008.5 0.0
04/02:00am 27.8 26.6 12.9 39 8.8 NE 11 13 6 7 1010.0 1008.6 0.0
04/01:30am 27.8 26.3 13.2 40 8.7 NE 13 15 7 8 1010.3 1008.9 0.0
04/01:00am 27.7 27.5 13.7 42 8.4 NE 7 9 4 5 1010.4 1009.0 0.0
04/12:30am 26.7 27.4 16.0 52 6.6 NNE 7 7 4 4 1010.6 1009.2 0.0
04/12:00am 26.4 26.8 16.4 54 6.2 N 9 11 5 6 1010.8 1009.4 0.0
 
Date/Time
EST
Temp
°C
App
Temp
°C
Dew
Point
°C
Rel
Hum
%
Delta-T
°C
Wind Press
QNH
hPa
Press
MSL
hPa
Rain since
9am
mm
Dir  Spd
km/h
Gust
km/h
Spd
kts
Gust
kts
03/11:30pm 29.6 27.2 11.4 32 10.6 NE 15 19 8 10 1010.8 1009.4 0.0
03/11:00pm 28.7 27.3 13.3 38 9.2 NNE 13 15 7 8 1011.0 1009.6 0.0
03/10:30pm 28.9 30.5 17.8 51 7.1 NNE 6 9 3 5 1010.8 1009.4 0.0
03/10:00pm 29.8 32.0 16.5 44 8.4 CALM 0 0 0 0 1010.7 1009.3 0.0
03/09:30pm 31.2 30.8 13.1 33 10.9 S 7 9 4 5 1010.4 1009.0 0.0
03/09:00pm 31.7 31.0 13.2 32 11.2 ESE 9 9 5 5 1010.0 1008.6 0.0
03/08:30pm 30.6 29.1 14.2 36 10.0 E 15 19 8 10 1009.9 1008.5 0.0
03/08:00pm 31.6 30.5 13.0 32 11.2 ESE 11 15 6 8 1009.5 1008.2 0.0
03/07:30pm 34.5 31.3 9.9 22 14.3 ESE 17 19 9 10 1009.5 1008.2 0.0
03/07:00pm 35.5 32.4 10.3 21 14.8 E 17 22 9 12 1009.5 1008.2 0.0
03/06:30pm 36.7 33.2 10.3 20 15.6 ESE 19 26 10 14 1009.3 1008.0 0.0
03/06:00pm 38.0 34.2 9.9 18 16.6 SE 20 26 11 14 1009.1 1007.8 0.0
03/05:32pm 37.6 32.0 10.0 19 16.3 SE 30 50 16 27 1008.8 1007.5 0.0
03/05:30pm 37.7 32.1 10.1 19 16.3 SE 30 50 16 27 1008.8 1007.5 0.0
03/05:26pm 37.7 33.7 9.0 17 16.7 S 20 50 11 27 1008.7 1007.4 0.0
03/05:00pm 41.3 38.0 6.3 12 19.9 WNW 13 17 7 9 1008.4 1007.1 0.0
03/04:30pm 41.1 38.6 6.5 12 19.7 NW 9 19 5 10 1008.4 1007.1 0.0
03/04:00pm 41.6 39.3 8.9 14 19.3 N 11 15 6 8 1008.4 1007.1 0.0
03/03:30pm 41.0 36.3 5.9 12 19.8 N 20 26 11 14 1008.6 1007.3 0.0
03/03:00pm 41.3 38.1 6.9 12 19.7 WNW 13 28 7 15 1008.9 1007.6 0.0
03/02:30pm 41.5 38.7 8.4 13 19.4 N 13 24 7 13 1009.2 1007.9 0.0
03/02:00pm 41.4 36.8 5.4 11 20.2 WNW 19 28 10 15 1009.7 1008.3 0.0
03/01:30pm 41.5 37.1 6.7 12 19.9 NNW 19 33 10 18 1010.0 1008.6 0.0
03/01:00pm 40.3 37.5 8.7 15 18.5 NW 13 26 7 14 1010.5 1009.1 0.0
03/12:30pm 40.1 35.7 7.6 14 18.7 N 20 32 11 17 1010.9 1009.5 0.0
03/12:00pm 39.8 37.0 11.2 18 17.3 WSW 17 26 9 14 1011.2 1009.8 0.0
03/11:30am 39.5 36.4 11.7 19 16.9 WNW 19 28 10 15 1011.6 1010.2 0.0
03/11:00am 37.4 36.8 14.7 26 14.3 WNW 11 19 6 10 1012.1 1010.7 0.0

Other Formats:

Comma delimited format used in spreadsheet applications
http://www.bom.gov.au/fwo/IDQ60801/IDQ60801.94346.axf

JavaScript Object Notation format (JSON) in row-major order
http://www.bom.gov.au/fwo/IDQ60801/IDQ60801.94346.json